Stella Prima — PHEA — position and weather

sailwx.info

Track history (hours):
 
Tides and Currents Weather Stations Pressure Air Temp Water Temp Dewpoint Dewpoint Depression Visibility Wind Speed Wind Dir Waves Ship Positions

Stella Prima

Last reported at 2015-Feb-27 19:17 UTC. Time now 2015-Feb-28 14:01 UTC.
Position N 39°36' W 009°45'.

Length 100 m; beam 21 m.

Type: Cargo ship. MMSI: 246460000.

Date/timePositionNaut miles runAvg speedWind from/ knotsBaromVisibWave heightAir tempDewpointWater temp
2015-Feb-27 19:17N 39°36' W 009°45'27 9.6
2015-Feb-27 16:29N 39°09' W 009°50'9 8.9
2015-Feb-27 15:32N 39°01' W 009°50'9 9.2
2015-Feb-27 14:33N 38°52' W 009°50'9 9.3
2015-Feb-27 13:33N 38°43' W 009°50'8 7.7
2015-Feb-27 12:31N 38°37' W 009°43'1010.3
2015-Feb-27 11:33N 38°37' W 009°30'1212.2
2015-Feb-27 10:33N 38°41' W 009°16'8 3.3
2015-Feb-27 08:10N 38°44' W 009°06'0 0.0
2015-Feb-27 06:19N 38°44' W 009°06'0 0.0
2015-Feb-27 05:31N 38°44' W 009°06'0 0.0
2015-Feb-27 04:31N 38°44' W 009°06'0 0.0
2015-Feb-27 03:31N 38°44' W 009°06'0 0.0
2015-Feb-27 02:16N 38°44' W 009°06'0 0.0
2015-Feb-27 01:28N 38°44' W 009°06'0 0.0
2015-Feb-27 00:22N 38°44' W 009°06'0 0.0
2015-Feb-26 17:07N 38°44' W 009°06'0 0.0
2015-Feb-26 16:31N 38°44' W 009°06'0 0.0
2015-Feb-26 07:10N 38°44' W 009°06'0 0.0
2015-Feb-26 06:31N 38°44' W 009°06'0 0.0
2015-Feb-26 04:22N 38°44' W 009°06'0 0.0
2015-Feb-26 03:31N 38°44' W 009°06'0 0.0
2015-Feb-26 02:31N 38°44' W 009°06'0 0.0
2015-Feb-26 01:31N 38°44' W 009°06'0 0.0
2015-Feb-26 00:04N 38°44' W 009°06'0 0.0
2015-Feb-25 23:19N 38°44' W 009°06'0 0.0
2015-Feb-25 21:04N 38°44' W 009°06'0 0.0
2015-Feb-25 20:07N 38°44' W 009°06'0 0.0
2015-Feb-25 17:27N 38°44' W 009°06'4 4.9
2015-Feb-25 16:33N 38°41' W 009°11'8 8.0
2015-Feb-25 15:33N 38°39' W 009°21'9 8.0
2015-Feb-25 14:27N 38°30' W 009°24'910.4
2015-Feb-25 13:33N 38°21' W 009°23'1211.8
2015-Feb-25 12:33N 38°09' W 009°23'1211.6
2015-Feb-25 11:33N 37°57' W 009°23'1211.7
2015-Feb-25 10:33N 37°46' W 009°22'1111.4
2015-Feb-25 09:33N 37°34' W 009°22'58 8.9
2015-Feb-25 03:06N 36°43' W 008°50'611.5
2015-Feb-25 02:33N 36°43' W 008°42'1212.4
2015-Feb-25 01:33N 36°43' W 008°26'1313.4
2015-Feb-25 00:33N 36°44' W 008°10'1513.2
2015-Feb-24 23:26N 36°44' W 007°51'  
Track history (hours):
 
Tides and Currents Weather Stations Pressure Air Temp Water Temp Dewpoint Dewpoint Depression Visibility Wind Speed Wind Dir Waves Ship Positions

Stella Prima

Last reported at 2015-Feb-27 19:17 UTC. Time now 2015-Feb-28 14:01 UTC.
Position N 39°36' W 009°45'.

Length 100 m; beam 21 m.

Type: Cargo ship. MMSI: 246460000.

Date/timePositionNaut miles runAvg speedWind from/ knotsBaromVisibWave heightAir tempDewpointWater temp
2015-Feb-27 19:17N 39°36' W 009°45'27 9.6
2015-Feb-27 16:29N 39°09' W 009°50'9 8.9
2015-Feb-27 15:32N 39°01' W 009°50'9 9.2
2015-Feb-27 14:33N 38°52' W 009°50'9 9.3
2015-Feb-27 13:33N 38°43' W 009°50'8 7.7
2015-Feb-27 12:31N 38°37' W 009°43'1010.3
2015-Feb-27 11:33N 38°37' W 009°30'1212.2
2015-Feb-27 10:33N 38°41' W 009°16'8 3.3
2015-Feb-27 08:10N 38°44' W 009°06'0 0.0
2015-Feb-27 06:19N 38°44' W 009°06'0 0.0
2015-Feb-27 05:31N 38°44' W 009°06'0 0.0
2015-Feb-27 04:31N 38°44' W 009°06'0 0.0
2015-Feb-27 03:31N 38°44' W 009°06'0 0.0
2015-Feb-27 02:16N 38°44' W 009°06'0 0.0
2015-Feb-27 01:28N 38°44' W 009°06'0 0.0
2015-Feb-27 00:22N 38°44' W 009°06'0 0.0
2015-Feb-26 17:07N 38°44' W 009°06'0 0.0
2015-Feb-26 16:31N 38°44' W 009°06'0 0.0
2015-Feb-26 07:10N 38°44' W 009°06'0 0.0
2015-Feb-26 06:31N 38°44' W 009°06'0 0.0
2015-Feb-26 04:22N 38°44' W 009°06'0 0.0
2015-Feb-26 03:31N 38°44' W 009°06'0 0.0
2015-Feb-26 02:31N 38°44' W 009°06'0 0.0
2015-Feb-26 01:31N 38°44' W 009°06'0 0.0
2015-Feb-26 00:04N 38°44' W 009°06'0 0.0
2015-Feb-25 23:19N 38°44' W 009°06'0 0.0
2015-Feb-25 21:04N 38°44' W 009°06'0 0.0
2015-Feb-25 20:07N 38°44' W 009°06'0 0.0
2015-Feb-25 17:27N 38°44' W 009°06'4 4.9
2015-Feb-25 16:33N 38°41' W 009°11'8 8.0
2015-Feb-25 15:33N 38°39' W 009°21'9 8.0
2015-Feb-25 14:27N 38°30' W 009°24'910.4
2015-Feb-25 13:33N 38°21' W 009°23'1211.8
2015-Feb-25 12:33N 38°09' W 009°23'1211.6
2015-Feb-25 11:33N 37°57' W 009°23'1211.7
2015-Feb-25 10:33N 37°46' W 009°22'1111.4
2015-Feb-25 09:33N 37°34' W 009°22'58 8.9
2015-Feb-25 03:06N 36°43' W 008°50'611.5
2015-Feb-25 02:33N 36°43' W 008°42'1212.4
2015-Feb-25 01:33N 36°43' W 008°26'1313.4
2015-Feb-25 00:33N 36°44' W 008°10'1513.2
2015-Feb-24 23:26N 36°44' W 007°51'  

Dump ship's entire track history